Time;durP1;ratioP1;P1;durP2;ratioP2;P2;SDS_P1;SDS_P2;PMS_P1;PMS_P2;Temp;Humidity;BMP_temperature;BMP_pressure;BME280_temperature;BME280_humidity;BME280_pressure;Samples;Min_cycle;Max_cycle;Signal;HPM_P1;HPM_P2
2024/03/09 00:01:37;;;;;;;12.50;9.80;;;;;;;5.17;100.00;97528.22;1223705;75;2929946;-65
2024/03/09 00:04:10;;;;;;;9.80;8.05;;;;;;;5.24;100.00;97523.31;1224545;75;2913925;-64
2024/03/09 00:06:44;;;;;;;10.20;8.15;;;;;;;5.20;100.00;97521.94;1223151;75;2918156;-65
2024/03/09 00:09:17;;;;;;;9.70;7.65;;;;;;;5.24;100.00;97515.19;1224993;75;2924093;-64
2024/03/09 00:11:50;;;;;;;9.00;7.30;;;;;;;5.26;100.00;97520.91;1224592;75;2916081;-63
2024/03/09 00:14:23;;;;;;;8.65;6.60;;;;;;;5.21;100.00;97518.75;1225205;75;2915519;-65
2024/03/09 00:16:58;;;;;;;9.40;7.40;;;;;;;5.25;100.00;97516.69;1224135;75;2918214;-66
2024/03/09 00:19:31;;;;;;;8.00;6.30;;;;;;;5.28;100.00;97510.38;1225070;75;2918819;-63
2024/03/09 00:22:05;;;;;;;8.75;6.90;;;;;;;5.27;100.00;97506.16;1223834;75;2925818;-65
2024/03/09 00:24:38;;;;;;;8.90;6.85;;;;;;;5.11;100.00;97493.53;1224619;75;2920307;-66
2024/03/09 00:27:14;;;;;;;9.95;7.30;;;;;;;5.24;100.00;97492.69;1224972;75;2928823;-63
2024/03/09 00:29:47;;;;;;;10.65;8.05;;;;;;;5.28;100.00;97501.47;1224927;75;2923546;-65
2024/03/09 00:32:22;;;;;;;8.60;7.15;;;;;;;5.23;100.00;97502.03;1225033;75;2921738;-65
2024/03/09 00:34:55;;;;;;;8.85;6.75;;;;;;;5.29;100.00;97498.31;1224579;75;2918455;-64
2024/03/09 00:37:30;;;;;;;9.50;7.30;;;;;;;5.19;100.00;97493.28;1224886;75;2911262;-66
2024/03/09 00:40:04;;;;;;;9.65;7.50;;;;;;;5.31;100.00;97487.75;1225332;75;2923782;-65
2024/03/09 00:42:37;;;;;;;8.40;6.85;;;;;;;5.25;100.00;97483.38;1224803;75;2921536;-64
2024/03/09 00:45:13;;;;;;;9.15;7.00;;;;;;;5.06;100.00;97474.34;1224995;75;2912075;-65
2024/03/09 00:47:49;;;;;;;11.45;8.40;;;;;;;5.18;100.00;97475.50;1224548;75;2923191;-63
2024/03/09 00:50:24;;;;;;;10.95;8.25;;;;;;;5.18;100.00;97464.63;1225363;75;2916283;-65
2024/03/09 00:52:57;;;;;;;10.55;8.15;;;;;;;5.19;100.00;97474.28;1224801;75;2927456;-64
2024/03/09 00:55:29;;;;;;;10.80;8.30;;;;;;;5.04;100.00;97465.91;1224741;75;2928304;-66
2024/03/09 00:58:07;;;;;;;10.55;8.15;;;;;;;5.19;100.00;97463.41;1224621;75;2924591;-63
2024/03/09 01:00:40;;;;;;;12.00;8.05;;;;;;;5.24;100.00;97469.06;1225066;75;2922106;-64
2024/03/09 01:03:15;;;;;;;10.00;7.65;;;;;;;5.21;100.00;97461.03;1225467;75;2917292;-65
2024/03/09 01:05:48;;;;;;;9.30;7.75;;;;;;;5.16;100.00;97456.94;1225187;75;2915358;-63
2024/03/09 01:08:21;;;;;;;10.10;7.60;;;;;;;5.12;100.00;97448.16;1225151;75;2913397;-66
2024/03/09 01:10:55;;;;;;;9.70;7.40;;;;;;;5.19;100.00;97449.84;1225078;75;2929882;-64
2024/03/09 01:13:28;;;;;;;10.30;7.80;;;;;;;5.04;100.00;97441.47;1224643;75;2921482;-64
2024/03/09 01:16:00;;;;;;;12.45;9.35;;;;;;;4.98;100.00;97446.72;1225066;75;2918605;-67
2024/03/09 01:18:36;;;;;;;12.00;8.55;;;;;;;5.16;100.00;97445.31;1224919;75;2962602;-65
2024/03/09 01:21:09;;;;;;;10.75;8.55;;;;;;;5.06;100.00;97444.50;1225120;75;2918714;-64
2024/03/09 01:23:43;;;;;;;9.70;7.70;;;;;;;5.14;100.00;97445.75;1224770;75;2919254;-64
2024/03/09 01:26:16;;;;;;;8.25;6.75;;;;;;;5.19;100.00;97428.16;1224533;75;2917997;-65
2024/03/09 01:28:49;;;;;;;9.25;7.90;;;;;;;5.10;100.00;97429.63;1225393;75;2929436;-65
2024/03/09 01:31:27;;;;;;;11.05;8.55;;;;;;;5.14;100.00;97415.91;1225206;75;2917275;-65
2024/03/09 01:34:05;;;;;;;;;;;;;;;5.05;100.00;97418.56;1226120;75;2916200;-64
2024/03/09 01:36:37;;;;;;;9.65;7.80;;;;;;;5.14;100.00;97421.34;1224649;75;2923344;-66
2024/03/09 01:39:10;;;;;;;10.65;8.25;;;;;;;5.11;100.00;97414.09;1224731;68;2922268;-65
2024/03/09 01:41:44;;;;;;;9.55;7.95;;;;;;;5.13;100.00;97411.69;1224609;75;2920172;-67
2024/03/09 01:44:17;;;;;;;9.35;7.50;;;;;;;5.18;100.00;97411.09;1224570;75;2926362;-64
2024/03/09 01:46:52;;;;;;;8.75;6.90;;;;;;;5.19;100.00;97401.00;1224372;75;2919732;-66
2024/03/09 01:49:28;;;;;;;7.50;5.95;;;;;;;5.20;100.00;97406.00;1224196;75;2918667;-64
2024/03/09 01:52:01;;;;;;;9.35;7.25;;;;;;;5.17;100.00;97404.19;1224802;75;2922699;-65
2024/03/09 01:54:34;;;;;;;9.90;7.20;;;;;;;5.20;100.00;97405.25;1224780;75;2919350;-65
2024/03/09 01:57:08;;;;;;;10.70;7.80;;;;;;;5.13;100.00;97406.28;1224787;75;2917916;-67
2024/03/09 01:59:42;;;;;;;11.75;8.85;;;;;;;5.05;100.00;97400.34;1223916;75;2925170;-64
2024/03/09 02:02:15;;;;;;;11.30;8.65;;;;;;;5.07;100.00;97397.19;1224228;75;2923408;-66
2024/03/09 02:04:51;;;;;;;13.45;9.15;;;;;;;4.98;100.00;97389.00;1225036;75;2921948;-65
2024/03/09 02:07:24;;;;;;;11.20;8.40;;;;;;;5.06;100.00;97393.72;1223676;75;2918443;-66
2024/03/09 02:09:57;;;;;;;11.10;8.50;;;;;;;5.06;100.00;97393.72;1224617;75;2920008;-65
2024/03/09 02:12:30;;;;;;;11.25;9.00;;;;;;;5.11;100.00;97384.25;1224398;75;2919189;-65
2024/03/09 02:15:05;;;;;;;10.90;8.95;;;;;;;5.05;100.00;97384.06;1225081;75;2917628;-65
2024/03/09 02:17:38;;;;;;;12.25;10.05;;;;;;;5.06;100.00;97384.81;1224964;75;2917034;-64
2024/03/09 02:20:16;;;;;;;12.40;9.25;;;;;;;5.00;100.00;97383.88;1224957;75;2923656;-64
2024/03/09 02:22:49;;;;;;;;;;;;;;;5.12;100.00;97378.38;1226311;75;2920994;-62
2024/03/09 02:25:25;;;;;;;11.90;8.50;;;;;;;5.03;100.00;97383.00;1224756;75;2928742;-64
2024/03/09 02:27:58;;;;;;;12.60;9.70;;;;;;;4.87;100.00;97382.00;1224204;75;2914764;-63
2024/03/09 02:30:32;;;;;;;15.10;12.25;;;;;;;4.80;100.00;97381.53;1224671;75;2916014;-65
2024/03/09 02:33:09;;;;;;;19.90;15.65;;;;;;;4.67;100.00;97376.94;1224543;75;2923108;-64
2024/03/09 02:35:42;;;;;;;18.60;14.45;;;;;;;4.78;100.00;97381.94;1225140;75;2913997;-62
2024/03/09 02:38:15;;;;;;;16.80;13.10;;;;;;;4.88;100.00;97361.06;1224351;75;2922754;-64
2024/03/09 02:40:50;;;;;;;18.25;13.40;;;;;;;4.58;100.00;97362.56;1224958;75;2919082;-64
2024/03/09 02:43:24;;;;;;;17.00;13.30;;;;;;;4.90;100.00;97366.81;1225243;75;2923737;-64
2024/03/09 02:45:57;;;;;;;14.25;11.40;;;;;;;4.96;100.00;97365.03;1224413;75;2918354;-67
2024/03/09 02:48:30;;;;;;;13.25;10.65;;;;;;;4.97;100.00;97361.13;1223405;75;2921862;-64
2024/03/09 02:51:03;;;;;;;18.60;13.85;;;;;;;4.72;100.00;97372.91;1223584;75;2923152;-66
2024/03/09 02:53:36;;;;;;;17.75;13.30;;;;;;;4.81;100.00;97364.81;1224927;75;2920629;-64
2024/03/09 02:56:15;;;;;;;15.75;12.25;;;;;;;4.85;100.00;97368.13;1224677;75;2922016;-62
2024/03/09 02:58:49;;;;;;;16.60;13.70;;;;;;;4.78;100.00;97359.50;1225439;75;2926882;-64
2024/03/09 03:01:22;;;;;;;16.45;12.75;;;;;;;4.89;100.00;97371.47;1224634;75;2915298;-66
2024/03/09 03:03:57;;;;;;;12.65;9.80;;;;;;;5.03;100.00;97362.06;1221641;75;3014352;-65
2024/03/09 03:06:32;;;;;;;14.65;10.65;;;;;;;4.89;100.00;97365.31;1224355;75;2921127;-64
2024/03/09 03:09:11;;;;;;;16.40;12.15;;;;;;;4.92;100.00;97364.41;1224646;75;2916172;-65
2024/03/09 03:11:46;;;;;;;13.50;10.60;;;;;;;4.88;100.00;97369.19;1224245;75;2922144;-64
2024/03/09 03:14:20;;;;;;;12.10;9.25;;;;;;;4.97;100.00;97365.78;1224538;75;2914601;-65
2024/03/09 03:16:55;;;;;;;11.50;9.25;;;;;;;4.96;100.00;97361.56;1225075;75;2919964;-65
2024/03/09 03:19:28;;;;;;;10.95;8.30;;;;;;;4.88;100.00;97364.56;1225984;75;2911362;-63
2024/03/09 03:22:01;;;;;;;11.90;9.20;;;;;;;4.88;100.00;97358.34;1223814;75;2926540;-64
2024/03/09 03:24:34;;;;;;;13.30;9.25;;;;;;;4.83;100.00;97356.22;1223026;75;2922089;-68
2024/03/09 03:27:10;;;;;;;12.85;10.40;;;;;;;4.80;100.00;97360.56;1224528;75;2926285;-65
2024/03/09 03:29:43;;;;;;;13.95;9.90;;;;;;;4.96;100.00;97362.31;1225527;75;2913510;-64
2024/03/09 03:32:16;;;;;;;14.85;11.30;;;;;;;4.74;100.00;97361.59;1224340;75;2915845;-64
2024/03/09 03:34:49;;;;;;;19.40;14.25;;;;;;;4.72;100.00;97356.63;1225073;75;2913333;-67
2024/03/09 03:37:19;;;;;;;15.40;12.50;;;;;;;4.96;100.00;97361.56;1224233;75;2925124;-65
2024/03/09 03:39:52;;;;;;;13.85;11.10;;;;;;;5.02;100.00;97348.94;1224839;75;2916636;-64
2024/03/09 03:42:28;;;;;;;12.80;10.30;;;;;;;4.96;100.00;97356.91;1224049;75;2929978;-66
2024/03/09 03:45:00;;;;;;;12.40;9.25;;;;;;;5.04;100.00;97360.84;1224307;75;2924280;-64
2024/03/09 03:47:33;;;;;;;13.40;10.00;;;;;;;5.10;100.00;97359.06;1223797;75;2926158;-65
2024/03/09 03:50:08;;;;;;;8.25;7.05;;;;;;;5.13;100.00;97360.13;1223655;75;2922994;-64
2024/03/09 03:52:41;;;;;;;10.60;8.20;;;;;;;5.03;100.00;97353.16;1224312;75;2936750;-62
2024/03/09 03:55:15;;;;;;;8.65;6.90;;;;;;;5.08;100.00;97358.00;1224397;75;2927668;-63
2024/03/09 03:57:50;;;;;;;8.75;7.20;;;;;;;4.94;100.00;97353.88;1224377;75;2916338;-64
2024/03/09 04:00:23;;;;;;;10.25;8.20;;;;;;;5.05;100.00;97350.75;1224811;75;2924260;-65
2024/03/09 04:02:57;;;;;;;10.50;8.10;;;;;;;5.12;100.00;97353.97;1224805;75;2921322;-65
2024/03/09 04:05:30;;;;;;;10.65;8.20;;;;;;;5.11;100.00;97352.44;1224089;75;2928124;-64
2024/03/09 04:08:03;;;;;;;9.35;8.00;;;;;;;5.12;100.00;97348.53;1223333;75;2919414;-63
2024/03/09 04:10:35;;;;;;;11.60;9.50;;;;;;;5.02;100.00;97349.69;1223796;75;2915970;-65
2024/03/09 04:13:11;;;;;;;13.00;9.80;;;;;;;4.93;100.00;97336.09;1224237;75;2919645;-65
2024/03/09 04:15:46;;;;;;;14.60;10.80;;;;;;;5.02;100.00;97341.53;1223917;75;2918001;-64
2024/03/09 04:18:19;;;;;;;14.00;10.40;;;;;;;5.04;100.00;97341.84;1224479;75;2922832;-64
2024/03/09 04:20:53;;;;;;;12.90;9.45;;;;;;;5.02;100.00;97336.13;1224245;75;2920060;-64
2024/03/09 04:23:26;;;;;;;11.60;9.15;;;;;;;4.91;100.00;97330.38;1224379;75;2920280;-64
2024/03/09 04:25:59;;;;;;;14.05;10.45;;;;;;;4.99;100.00;97331.59;1224900;75;2913770;-66
2024/03/09 04:28:35;;;;;;;13.40;10.20;;;;;;;5.03;100.00;97334.94;1224611;75;2928218;-64
2024/03/09 04:31:09;;;;;;;11.15;9.20;;;;;;;5.04;100.00;97330.25;1224305;75;2924833;-64
2024/03/09 04:33:43;;;;;;;11.50;9.10;;;;;;;5.04;100.00;97335.69;1224789;75;2925438;-64
2024/03/09 04:36:15;;;;;;;12.40;8.80;;;;;;;5.12;100.00;97336.91;1224156;75;2920272;-64
2024/03/09 04:38:48;;;;;;;10.70;9.35;;;;;;;5.03;100.00;97334.94;1223834;75;2913832;-62
2024/03/09 04:41:21;;;;;;;11.50;8.70;;;;;;;5.08;100.00;97345.19;1224535;75;2915824;-66
2024/03/09 04:43:56;;;;;;;12.25;9.05;;;;;;;5.03;100.00;97329.50;1224058;75;2932022;-64
2024/03/09 04:46:30;;;;;;;13.05;10.30;;;;;;;5.03;100.00;97324.09;1225121;75;2917597;-66
2024/03/09 04:49:03;;;;;;;12.30;9.85;;;;;;;5.03;100.00;97334.94;1225140;75;2921604;-64
2024/03/09 04:51:36;;;;;;;10.90;8.50;;;;;;;5.11;100.00;97322.59;1224837;75;2920418;-66
2024/03/09 04:54:10;;;;;;;10.80;8.25;;;;;;;5.17;100.00;97327.44;1225549;67;2922557;-64
2024/03/09 04:56:44;;;;;;;10.50;7.90;;;;;;;5.03;100.00;97328.75;1225134;75;2921290;-67
2024/03/09 04:59:19;;;;;;;8.70;7.15;;;;;;;5.17;100.00;97336.34;1225468;75;2916863;-66
2024/03/09 05:01:52;;;;;;;9.05;7.20;;;;;;;5.22;100.00;97334.97;1225665;75;2917095;-64
2024/03/09 05:04:25;;;;;;;9.20;7.00;;;;;;;5.18;100.00;97332.41;1225268;75;2918235;-66
2024/03/09 05:06:58;;;;;;;9.05;7.00;;;;;;;5.19;100.00;97331.19;1225088;75;2923815;-66
2024/03/09 05:09:31;;;;;;;9.50;7.40;;;;;;;5.21;100.00;97338.91;1225060;75;2909965;-65
2024/03/09 05:12:03;;;;;;;10.55;8.20;;;;;;;5.12;100.00;97336.91;1224687;75;2926845;-64
2024/03/09 05:14:39;;;;;;;10.25;7.85;;;;;;;5.16;100.00;97339.50;1224902;75;2924168;-65
2024/03/09 05:17:14;;;;;;;10.60;8.65;;;;;;;5.16;100.00;97342.97;1224771;75;2913525;-65
2024/03/09 05:19:46;;;;;;;10.25;8.10;;;;;;;5.17;100.00;97339.06;1224496;75;2917197;-65
2024/03/09 05:22:19;;;;;;;10.60;8.35;;;;;;;5.21;100.00;97349.75;1224435;75;2883519;-65
2024/03/09 05:24:53;;;;;;;11.65;8.25;;;;;;;5.22;100.00;97346.63;1222785;75;2911730;-65
2024/03/09 05:27:26;;;;;;;9.50;7.90;;;;;;;5.26;100.00;97347.22;1223582;75;2914724;-64
2024/03/09 05:30:05;;;;;;;9.65;7.40;;;;;;;5.18;100.00;97346.00;1224349;75;2885108;-66
2024/03/09 05:32:38;;;;;;;9.20;6.95;;;;;;;5.12;100.00;97353.19;1221930;75;2975455;-65
2024/03/09 05:35:14;;;;;;;11.25;7.70;;;;;;;5.24;100.00;97346.94;1226236;75;2836699;-65
2024/03/09 05:37:47;;;;;;;9.75;7.05;;;;;;;5.28;100.00;97341.34;1220637;75;2998864;-65
2024/03/09 05:40:20;;;;;;;10.95;8.05;;;;;;;5.28;100.00;97344.06;1225751;75;2884362;-68
2024/03/09 05:42:55;;;;;;;10.55;8.05;;;;;;;5.19;100.00;97342.06;1224655;75;2918289;-64
2024/03/09 05:45:32;;;;;;;10.85;8.30;;;;;;;5.26;100.00;97355.34;1225420;75;2908344;-65
2024/03/09 05:48:05;;;;;;;10.20;8.40;;;;;;;5.31;100.00;97343.16;1217487;75;3016793;-64
2024/03/09 05:50:38;;;;;;;11.05;8.90;;;;;;;5.23;100.00;97344.66;1151345;75;8965698;-65
2024/03/09 05:53:12;;;;;;;13.75;10.55;;;;;;;5.12;100.00;97342.34;1223140;75;3053703;-65
2024/03/09 05:55:45;;;;;;;13.30;11.30;;;;;;;5.14;100.00;97337.22;1223998;75;2921766;-64
2024/03/09 05:58:19;;;;;;;14.60;10.25;;;;;;;5.21;100.00;97336.19;1223552;75;2924644;-66
2024/03/09 06:00:56;;;;;;;12.30;9.60;;;;;;;5.28;100.00;97344.81;1224283;75;2932719;-64
2024/03/09 06:03:29;;;;;;;11.55;9.05;;;;;;;5.31;100.00;97343.16;1223840;75;2921398;-65
2024/03/09 06:06:02;;;;;;;11.05;8.50;;;;;;;5.33;100.00;97346.19;1222184;75;2920872;-64
2024/03/09 06:08:36;;;;;;;11.45;9.15;;;;;;;5.27;100.00;97346.03;1223889;75;2847187;-65
2024/03/09 06:11:10;;;;;;;14.45;10.70;;;;;;;5.21;100.00;97352.47;1224123;75;2913184;-65
2024/03/09 06:13:43;;;;;;;13.20;9.60;;;;;;;5.37;100.00;97357.66;1225004;75;2920098;-65
2024/03/09 06:16:20;;;;;;;12.20;9.20;;;;;;;5.40;100.00;97356.00;1223797;75;2925727;-65
2024/03/09 06:18:52;;;;;;;11.30;8.95;;;;;;;5.42;100.00;97359.03;1224846;75;2917293;-64
2024/03/09 06:21:25;;;;;;;10.20;8.25;;;;;;;5.53;100.00;97357.41;1222602;83;2920949;-64
2024/03/09 06:23:58;;;;;;;10.45;8.30;;;;;;;5.51;100.00;97361.78;1221696;75;2958814;-65
2024/03/09 06:26:31;;;;;;;10.50;7.85;;;;;;;5.53;100.00;97360.13;1222559;83;2916088;-64
2024/03/09 06:29:04;;;;;;;13.30;10.05;;;;;;;5.37;100.00;97365.81;1223146;75;2914302;-65
2024/03/09 06:31:40;;;;;;;11.55;9.15;;;;;;;5.50;100.00;97363.72;1224130;75;2925149;-66
2024/03/09 06:34:14;;;;;;;12.55;9.40;;;;;;;5.49;100.00;97364.94;1225337;75;2915762;-63
2024/03/09 06:36:47;;;;;;;12.30;9.65;;;;;;;5.51;100.00;97367.97;1223580;75;2923630;-64
2024/03/09 06:39:20;;;;;;;12.65;9.45;;;;;;;5.55;100.00;97371.28;1224401;75;2915676;-67
2024/03/09 06:41:53;;;;;;;11.55;9.10;;;;;;;5.53;100.00;97379.13;1224442;75;2918252;-64
2024/03/09 06:44:26;;;;;;;18.15;13.60;;;;;;;5.45;100.00;97377.88;1223928;75;2928894;-64
2024/03/09 06:47:02;;;;;;;14.55;11.85;;;;;;;5.57;100.00;97372.81;1224160;75;2922684;-66
2024/03/09 06:49:35;;;;;;;13.90;11.00;;;;;;;5.62;100.00;97374.91;1224481;75;2920345;-65
2024/03/09 06:52:11;;;;;;;12.30;9.80;;;;;;;5.58;100.00;97368.88;1224147;75;2930016;-63
2024/03/09 06:54:45;;;;;;;14.80;11.55;;;;;;;5.58;100.00;97366.94;1223463;75;2912330;-67
2024/03/09 06:57:18;;;;;;;15.55;12.30;;;;;;;5.61;100.00;97368.00;1224088;75;2912221;-64
2024/03/09 06:59:51;;;;;;;13.95;11.00;;;;;;;5.62;100.00;97372.22;1223841;75;2916103;-65
2024/03/09 07:02:26;;;;;;;16.90;12.30;;;;;;;5.65;100.00;97363.16;1224366;75;2916901;-62
2024/03/09 07:04:59;;;;;;;17.40;13.60;;;;;;;5.66;100.00;97372.81;1223650;75;2911373;-64
2024/03/09 07:07:32;;;;;;;18.85;14.40;;;;;;;5.79;100.00;97370.72;1224478;75;2920041;-66
2024/03/09 07:10:07;;;;;;;14.75;11.75;;;;;;;5.89;100.00;97379.66;1224029;75;2919829;-66
2024/03/09 07:12:40;;;;;;;16.35;12.85;;;;;;;5.95;100.00;97380.59;1224383;75;2921576;-64
2024/03/09 07:15:16;;;;;;;17.00;13.20;;;;;;;5.98;100.00;97380.44;1224439;75;2924129;-65
2024/03/09 07:17:53;;;;;;;27.15;19.75;;;;;;;5.51;100.00;97367.97;1224577;75;2920414;-64
2024/03/09 07:20:27;;;;;;;31.25;22.80;;;;;;;5.39;100.00;97376.19;1223861;75;2922844;-64
2024/03/09 07:23:00;;;;;;;35.10;26.10;;;;;;;5.30;100.00;97377.69;1224301;75;2917408;-65
2024/03/09 07:25:33;;;;;;;30.60;23.25;;;;;;;5.46;100.00;97373.22;1224064;75;2924119;-64
2024/03/09 07:28:06;;;;;;;23.85;17.70;;;;;;;5.68;100.00;97375.84;1223612;75;2933259;-64
2024/03/09 07:30:40;;;;;;;23.15;17.20;;;;;;;5.57;100.00;97370.84;1224794;75;2918186;-63
2024/03/09 07:33:17;;;;;;;30.05;21.85;;;;;;;5.32;100.00;97366.41;1224706;75;2916955;-65
2024/03/09 07:35:51;;;;;;;34.40;25.00;;;;;;;5.30;100.00;97374.22;1224678;75;2932001;-66
2024/03/09 07:38:24;;;;;;;31.30;23.00;;;;;;;5.65;100.00;97369.38;1224204;75;2922610;-64
2024/03/09 07:40:57;;;;;;;27.80;20.00;;;;;;;5.48;100.00;97378.94;1225136;75;2895698;-63
2024/03/09 07:43:29;;;;;;;28.75;21.25;;;;;;;5.40;100.00;97378.47;1225274;75;2919069;-65
2024/03/09 07:46:04;;;;;;;31.55;23.75;;;;;;;5.25;100.00;97385.66;1225630;75;2922138;-65
2024/03/09 07:48:40;;;;;;;34.30;24.95;;;;;;;5.21;100.00;97377.66;1224900;75;2917504;-65
2024/03/09 07:51:14;;;;;;;29.10;22.30;;;;;;;5.43;100.00;97371.41;1225296;75;2908632;-65
2024/03/09 07:53:47;;;;;;;32.90;24.40;;;;;;;5.31;100.00;97376.47;1224680;75;2919885;-64
2024/03/09 07:56:20;;;;;;;31.45;24.45;;;;;;;5.45;100.00;97374.41;1224815;75;2920222;-64
2024/03/09 07:58:53;;;;;;;28.60;21.75;;;;;;;5.44;100.00;97370.22;1225480;75;2933450;-63
2024/03/09 08:01:25;;;;;;;27.05;19.70;;;;;;;5.77;100.00;97370.41;1195804;75;5165193;-66
2024/03/09 08:04:04;;;;;;;29.20;22.10;;;;;;;5.40;100.00;97367.63;1225048;75;2922232;-64
2024/03/09 08:06:37;;;;;;;35.85;26.20;;;;;;;5.30;100.00;97364.13;1224043;75;2924091;-67
2024/03/09 08:09:13;;;;;;;34.35;26.90;;;;;;;5.31;100.00;97370.31;1224666;75;2909825;-65
2024/03/09 08:11:46;;;;;;;31.80;24.55;;;;;;;5.47;100.00;97377.44;1224402;75;2916433;-64
2024/03/09 08:14:19;;;;;;;39.25;27.30;;;;;;;5.39;100.00;97376.97;1192435;75;5389699;-64
2024/03/09 08:16:52;;;;;;;33.75;25.15;;;;;;;5.62;100.00;97359.38;1225092;75;2924518;-64
2024/03/09 08:19:27;;;;;;;34.50;24.70;;;;;;;5.59;100.00;97356.81;1224322;75;2919667;-65
2024/03/09 08:22:01;;;;;;;28.65;21.95;;;;;;;5.88;100.00;97354.44;1223885;75;2932258;-64
2024/03/09 08:24:35;;;;;;;31.65;23.05;;;;;;;5.82;100.00;97367.13;1224333;75;2923041;-64
2024/03/09 08:27:08;;;;;;;26.05;19.65;;;;;;;6.09;100.00;97357.53;1224491;75;2917059;-65
2024/03/09 08:29:41;;;;;;;28.40;22.60;;;;;;;5.84;100.00;97361.97;1224800;75;2921706;-66
2024/03/09 08:32:14;;;;;;;30.75;22.40;;;;;;;6.13;100.00;97358.09;1224741;75;2925318;-66
2024/03/09 08:34:49;;;;;;;29.15;21.70;;;;;;;5.98;100.00;97372.28;1224026;75;2916823;-68
2024/03/09 08:37:22;;;;;;;29.95;22.75;;;;;;;6.10;100.00;97356.31;1224238;75;2908974;-64
2024/03/09 08:39:56;;;;;;;37.10;26.85;;;;;;;6.11;100.00;97355.88;1223421;75;2916559;-64
2024/03/09 08:42:31;;;;;;;35.65;24.90;;;;;;;6.46;100.00;97360.22;1224268;75;2920504;-65
2024/03/09 08:45:05;;;;;;;30.75;22.85;;;;;;;6.54;100.00;97353.25;1224247;75;2928870;-67
2024/03/09 08:47:38;;;;;;;32.10;22.20;;;;;;;6.47;100.00;97356.28;1225160;75;2913261;-65
2024/03/09 08:50:16;;;;;;;30.40;22.65;;;;;;;6.64;100.00;97354.00;1225139;75;2914722;-66
2024/03/09 08:52:49;;;;;;;32.30;24.70;;;;;;;6.42;100.00;97359.59;1224938;75;2921677;-65
2024/03/09 08:55:22;;;;;;;36.40;27.35;;;;;;;6.23;100.00;97362.34;1224779;75;2916686;-65
2024/03/09 08:57:55;;;;;;;34.60;25.15;;;;;;;6.44;100.00;97371.53;1224314;75;2917063;-63
2024/03/09 09:00:27;;;;;;;35.05;26.80;;;;;;;6.41;100.00;97369.75;1223498;75;2924432;-62
2024/03/09 09:03:03;;;;;;;38.10;28.50;;;;;;;6.28;100.00;97369.16;1224975;75;2926574;-64
2024/03/09 09:05:39;;;;;;;37.25;28.90;;;;;;;6.05;100.00;97352.22;1223819;75;2944704;-64
2024/03/09 09:08:24;;;;;;;36.65;28.15;;;;;;;6.10;100.00;97348.91;1223568;75;2930703;-63
2024/03/09 09:10:57;;;;;;;32.80;23.65;;;;;;;6.38;100.00;97355.09;1224581;75;2934721;-65
2024/03/09 09:13:30;;;;;;;34.25;23.90;;;;;;;6.42;100.00;97363.06;1224734;75;2922381;-65
2024/03/09 09:16:03;;;;;;;39.50;28.45;;;;;;;6.02;100.00;97346.94;1223810;75;2928503;-64
2024/03/09 09:18:36;;;;;;;37.20;27.05;;;;;;;5.94;100.00;97349.19;1223910;75;2921151;-65
2024/03/09 09:21:14;;;;;;;37.00;27.00;;;;;;;6.16;100.00;97340.91;1222672;75;2911894;-66
2024/03/09 09:23:47;;;;;;;36.15;26.30;;;;;;;6.30;100.00;97350.41;1221688;75;2928056;-65
2024/03/09 09:26:20;;;;;;;28.05;20.80;;;;;;;6.50;100.00;97350.69;1224625;75;2915450;-64
2024/03/09 09:28:53;;;;;;;32.50;23.40;;;;;;;6.40;100.00;97346.50;1225174;75;2916648;-64
2024/03/09 09:31:27;;;;;;;29.50;22.65;;;;;;;6.45;100.00;97345.88;1223745;75;2913448;-65
2024/03/09 09:33:59;;;;;;;32.15;23.70;;;;;;;6.22;100.00;97346.50;1223016;75;2931851;-64
2024/03/09 09:36:35;;;;;;;38.05;28.25;;;;;;;6.14;100.00;97354.94;1225397;75;2914528;-63
2024/03/09 09:39:13;;;;;;;37.20;28.45;;;;;;;6.01;100.00;97340.75;1224890;75;2917114;-65
2024/03/09 09:41:47;;;;;;;;;;;;;;;6.27;100.00;97356.75;1225198;75;2926721;-65
2024/03/09 09:44:20;;;;;;;34.20;25.30;;;;;;;6.21;100.00;97350.44;1225419;67;2912211;-65
2024/03/09 09:46:54;;;;;;;36.80;27.80;;;;;;;6.03;100.00;97346.47;1222760;75;2932717;-63
2024/03/09 09:49:28;;;;;;;34.25;25.70;;;;;;;6.03;100.00;97338.34;1223948;75;2920002;-64
2024/03/09 09:52:04;;;;;;;29.60;22.60;;;;;;;6.41;100.00;97331.66;1224215;75;2941703;-67
2024/03/09 09:54:37;;;;;;;28.30;20.70;;;;;;;6.46;100.00;97338.47;1223576;75;2925439;-64
2024/03/09 09:57:10;;;;;;;28.30;22.15;;;;;;;6.42;100.00;97326.97;1224040;75;2921274;-66
2024/03/09 09:59:44;;;;;;;34.90;26.65;;;;;;;6.18;100.00;97331.09;1224126;75;2928278;-63
2024/03/09 10:02:20;;;;;;;40.50;29.00;;;;;;;6.02;100.00;97331.41;1224558;75;2915026;-66
2024/03/09 10:04:54;;;;;;;36.35;27.80;;;;;;;6.13;100.00;97330.94;1224644;67;2923181;-67
2024/03/09 10:07:30;;;;;;;33.10;24.10;;;;;;;6.32;100.00;97334.41;1224102;75;2926023;-65
2024/03/09 10:10:19;;;;;;;35.25;25.20;;;;;;;6.38;100.00;97336.06;1224206;75;2919932;-61
2024/03/09 10:12:52;;;;;;;35.20;26.95;;;;;;;6.19;100.00;97332.59;1224145;75;2925519;-63
2024/03/09 10:15:26;;;;;;;37.50;27.80;;;;;;;6.11;100.00;97333.34;1223507;75;2920679;-63
2024/03/09 10:17:59;;;;;;;37.60;28.05;;;;;;;5.93;100.00;97323.97;1224608;75;2931689;-63
2024/03/09 10:20:33;;;;;;;37.15;27.15;;;;;;;6.25;100.00;97321.13;1224335;75;2914200;-63
2024/03/09 10:23:12;;;;;;;34.35;26.50;;;;;;;6.15;100.00;97336.66;1223865;75;2945734;-64
2024/03/09 10:25:45;;;;;;;34.05;24.40;;;;;;;6.48;100.00;97338.78;1224381;75;2918767;-63
2024/03/09 10:28:19;;;;;;;39.70;28.90;;;;;;;6.10;100.00;97331.84;1225080;75;2917904;-63
2024/03/09 10:30:53;;;;;;;36.55;27.80;;;;;;;6.10;100.00;97335.31;1225389;75;2931940;-62
2024/03/09 10:33:26;;;;;;;39.50;29.35;;;;;;;5.96;100.00;97353.00;1222691;75;2928914;-64
2024/03/09 10:36:02;;;;;;;40.45;29.90;;;;;;;6.02;100.00;97342.25;1224949;75;2916870;-63
2024/03/09 10:38:40;;;;;;;33.90;25.15;;;;;;;6.33;100.00;97341.34;1224327;75;2915516;-65
2024/03/09 10:41:16;;;;;;;31.40;23.90;;;;;;;6.31;100.00;97343.78;1225025;75;2930157;-65
2024/03/09 10:43:49;;;;;;;35.60;26.45;;;;;;;6.24;100.00;97328.53;1224547;75;2927160;-64
2024/03/09 10:46:26;;;;;;;38.70;29.35;;;;;;;6.13;100.00;97325.50;1224279;75;2921587;-63
2024/03/09 10:49:01;;;;;;;38.25;27.95;;;;;;;6.14;100.00;97327.03;1224355;75;2913884;-65
2024/03/09 10:51:45;;;;;;;40.75;29.20;;;;;;;6.12;100.00;97321.28;1224417;75;2928764;-63
2024/03/09 10:54:33;;;;;;;35.45;26.55;;;;;;;6.19;100.00;97318.25;1224377;68;2921416;-64
2024/03/09 10:57:12;;;;;;;35.40;26.40;;;;;;;6.26;100.00;97317.19;1224302;75;2923873;-63
2024/03/09 10:59:46;;;;;;;33.60;25.80;;;;;;;6.35;100.00;97328.03;1222609;75;2920503;-63
2024/03/09 11:02:22;;;;;;;33.40;25.30;;;;;;;6.48;100.00;97323.22;1223293;75;2983956;-65
2024/03/09 11:04:58;;;;;;;36.20;24.65;;;;;;;6.40;100.00;97330.94;1223912;75;2937842;-64
2024/03/09 11:07:32;;;;;;;28.40;22.25;;;;;;;6.51;100.00;97325.00;1224740;75;2912379;-64
2024/03/09 11:10:09;;;;;;;30.20;23.00;;;;;;;6.55;100.00;97316.69;1223432;75;2924284;-63
2024/03/09 11:12:43;;;;;;;24.15;19.65;;;;;;;6.69;100.00;97321.50;1225333;75;2922268;-63
2024/03/09 11:15:16;;;;;;;33.85;24.70;;;;;;;6.55;100.00;97320.16;1224152;75;2924631;-63
2024/03/09 11:17:49;;;;;;;34.55;25.75;;;;;;;6.48;100.00;97317.00;1224848;75;2919838;-66
2024/03/09 11:20:26;;;;;;;37.80;27.30;;;;;;;6.51;100.00;97322.28;1223885;75;2921127;-65
2024/03/09 11:23:00;;;;;;;41.00;27.70;;;;;;;6.47;100.00;97310.84;1223856;75;2926784;-65
2024/03/09 11:25:51;;;;;;;36.70;25.60;;;;;;;6.57;100.00;97297.97;1225059;75;2925512;-63
2024/03/09 11:28:30;;;;;;;32.90;25.65;;;;;;;6.64;100.00;97296.88;1225205;75;2910758;-65
2024/03/09 11:31:25;;;;;;;32.85;24.65;;;;;;;6.69;100.00;97302.47;1225028;75;2913870;-63
2024/03/09 11:34:16;;;;;;;36.40;26.15;;;;;;;6.55;100.00;97294.94;1224046;75;2947285;-64
2024/03/09 11:36:55;;;;;;;34.95;27.65;;;;;;;6.36;100.00;97299.66;1224931;75;2921221;-63
2024/03/09 11:39:31;;;;;;;35.55;26.80;;;;;;;6.53;100.00;97298.13;1223100;75;2912433;-66